createdAt,value
2023-02-04T00:02:02.361Z,0.57
2023-02-04T00:04:29.811Z,0.57
2023-02-04T00:06:57.175Z,0.53
2023-02-04T00:09:24.575Z,0.33
2023-02-04T00:11:51.970Z,0.30
2023-02-04T00:14:20.677Z,0.10
2023-02-04T00:16:48.122Z,0.10
2023-02-04T00:19:16.985Z,0.30
2023-02-04T00:21:44.412Z,0.30
2023-02-04T00:24:11.902Z,0.20
2023-02-04T00:26:39.367Z,0.63
2023-02-04T00:29:07.275Z,0.30
2023-02-04T00:31:36.104Z,0.40
2023-02-04T00:34:03.565Z,0.60
2023-02-04T00:36:31.181Z,0.50
2023-02-04T00:38:58.532Z,0.30
2023-02-04T00:41:25.972Z,0.50
2023-02-04T00:43:53.323Z,0.60
2023-02-04T00:46:20.710Z,0.33
2023-02-04T00:48:49.404Z,0.47
2023-02-04T00:51:17.345Z,0.23
2023-02-04T00:53:44.784Z,0.50
2023-02-04T00:56:12.259Z,0.77
2023-02-04T00:58:39.650Z,0.50
2023-02-04T01:01:07.073Z,0.53
2023-02-04T01:03:34.509Z,0.40
2023-02-04T01:06:03.973Z,0.40
2023-02-04T01:08:31.480Z,0.50
2023-02-04T01:10:59.525Z,0.53
2023-02-04T01:13:27.577Z,0.43
2023-02-04T01:15:55.268Z,0.30
2023-02-04T01:18:22.782Z,0.57
2023-02-04T01:20:50.168Z,0.50
2023-02-04T01:23:19.245Z,0.63
2023-02-04T01:25:46.643Z,0.50
2023-02-04T01:28:14.060Z,0.60
2023-02-04T01:30:41.483Z,0.50
2023-02-04T01:33:09.032Z,0.60
2023-02-04T01:35:36.413Z,0.53
2023-02-04T01:38:03.772Z,0.50
2023-02-04T01:40:33.596Z,0.83
2023-02-04T01:43:01.095Z,0.60
2023-02-04T01:45:30.611Z,0.67
2023-02-04T01:47:58.092Z,0.70
2023-02-04T01:50:25.475Z,0.67
2023-02-04T01:52:52.839Z,1.33
2023-02-04T01:55:21.635Z,1.10
2023-02-04T01:57:52.842Z,0.70
2023-02-04T02:00:23.579Z,0.70
2023-02-04T02:02:52.169Z,0.70
2023-02-04T02:05:22.065Z,0.60
2023-02-04T02:07:50.448Z,0.60
2023-02-04T02:10:18.399Z,0.70
2023-02-04T02:12:46.708Z,0.80
2023-02-04T02:15:16.651Z,0.40
2023-02-04T02:17:44.241Z,0.83
2023-02-04T02:20:14.373Z,0.80
2023-02-04T02:22:46.412Z,0.70
2023-02-04T02:25:15.771Z,0.70
2023-02-04T02:27:44.123Z,0.60
2023-02-04T02:30:12.626Z,0.60
2023-02-04T02:32:40.085Z,0.70
2023-02-04T02:35:08.135Z,1.00
2023-02-04T02:37:35.574Z,0.80
2023-02-04T02:40:03.250Z,0.60
2023-02-04T02:42:32.348Z,0.60
2023-02-04T02:45:00.193Z,0.63
2023-02-04T02:47:28.608Z,0.70
2023-02-04T02:49:56.072Z,0.70
2023-02-04T02:52:23.860Z,0.80
2023-02-04T02:54:51.473Z,0.70
2023-02-04T02:57:20.687Z,0.43
2023-02-04T02:59:49.857Z,0.40
2023-02-04T03:02:18.409Z,0.80
2023-02-04T03:04:48.085Z,0.40
2023-02-04T03:07:18.281Z,0.53
2023-02-04T03:09:45.841Z,0.60
2023-02-04T03:12:13.399Z,0.73
2023-02-04T03:14:40.900Z,0.80
2023-02-04T03:17:10.173Z,0.70
2023-02-04T03:19:38.141Z,0.73
2023-02-04T03:22:06.121Z,0.53
2023-02-04T03:24:33.630Z,0.70
2023-02-04T03:27:01.111Z,1.10
2023-02-04T03:29:29.817Z,0.77
2023-02-04T03:31:59.953Z,0.70
2023-02-04T03:34:28.767Z,0.47
2023-02-04T03:36:56.191Z,0.47
2023-02-04T03:39:23.587Z,0.20
2023-02-04T03:41:50.952Z,0.40
2023-02-04T03:44:18.724Z,0.40
2023-02-04T03:46:46.168Z,0.60
2023-02-04T03:49:14.477Z,0.50
2023-02-04T03:51:43.456Z,0.50
2023-02-04T03:54:11.338Z,0.60
2023-02-04T03:56:38.721Z,0.70
2023-02-04T03:59:06.175Z,0.47
2023-02-04T04:01:33.669Z,0.50
2023-02-04T04:04:01.134Z,0.40
2023-02-04T04:06:28.495Z,0.50
2023-02-04T04:08:57.187Z,0.60
2023-02-04T04:11:24.545Z,0.63
2023-02-04T04:13:51.978Z,0.50
2023-02-04T04:16:20.682Z,0.50
2023-02-04T04:18:48.254Z,0.40
2023-02-04T04:21:15.675Z,0.63
2023-02-04T04:23:43.341Z,0.70
2023-02-04T04:26:12.361Z,0.80
2023-02-04T04:28:39.743Z,0.67
2023-02-04T04:31:07.180Z,0.63
2023-02-04T04:33:34.628Z,0.83
2023-02-04T04:36:01.988Z,0.67
2023-02-04T04:38:29.361Z,0.60
2023-02-04T04:40:56.719Z,0.90
2023-02-04T04:43:25.656Z,0.73
2023-02-04T04:45:53.100Z,0.80
2023-02-04T04:48:21.546Z,0.90
2023-02-04T04:50:49.113Z,0.97
2023-02-04T04:53:16.786Z,0.50
2023-02-04T04:55:44.493Z,1.20
2023-02-04T04:58:11.906Z,1.03
2023-02-04T05:00:41.407Z,0.67
2023-02-04T05:03:08.822Z,0.83
2023-02-04T05:05:39.865Z,0.70
2023-02-04T05:08:10.771Z,1.00
2023-02-04T05:10:38.607Z,0.73
2023-02-04T05:13:06.000Z,0.50
2023-02-04T05:15:33.427Z,0.67
2023-02-04T05:18:02.177Z,0.87
2023-02-04T05:20:29.795Z,0.73
2023-02-04T05:23:00.982Z,0.90
2023-02-04T05:25:28.849Z,0.70
2023-02-04T05:27:56.282Z,0.80
2023-02-04T05:30:23.682Z,0.90
2023-02-04T05:32:51.088Z,0.80
2023-02-04T05:35:20.056Z,0.80
2023-02-04T05:37:47.403Z,0.70
2023-02-04T05:40:15.219Z,1.00
2023-02-04T05:42:42.689Z,0.80
2023-02-04T05:45:13.197Z,0.80
2023-02-04T05:47:40.645Z,0.90
2023-02-04T05:50:08.480Z,0.90
2023-02-04T05:52:37.178Z,0.50
2023-02-04T05:55:05.160Z,0.90
2023-02-04T05:57:32.704Z,0.70
2023-02-04T06:00:00.088Z,0.57
2023-02-04T06:02:27.713Z,0.50
2023-02-04T06:04:55.077Z,0.80
2023-02-04T06:07:22.435Z,0.60
2023-02-04T06:09:51.129Z,0.50
2023-02-04T06:12:18.497Z,0.50
2023-02-04T06:14:45.869Z,0.70
2023-02-04T06:17:13.219Z,0.67
2023-02-04T06:19:40.568Z,0.60
2023-02-04T06:22:07.920Z,0.60
2023-02-04T06:24:35.306Z,1.00
2023-02-04T06:27:03.992Z,0.80
2023-02-04T06:29:31.474Z,0.63
2023-02-04T06:31:59.284Z,0.30
2023-02-04T06:34:26.729Z,0.77
2023-02-04T06:36:54.099Z,1.00
2023-02-04T06:39:22.005Z,0.90
2023-02-04T06:41:49.470Z,0.50
2023-02-04T06:44:18.194Z,0.77
2023-02-04T06:46:45.578Z,0.73
2023-02-04T06:49:12.940Z,0.73
2023-02-04T06:51:40.600Z,0.63
2023-02-04T06:54:08.009Z,0.70
2023-02-04T06:56:35.420Z,0.90
2023-02-04T06:59:03.498Z,0.70
2023-02-04T07:01:32.328Z,0.73
2023-02-04T07:03:59.754Z,0.83
2023-02-04T07:06:27.317Z,0.40
2023-02-04T07:08:54.780Z,1.00
2023-02-04T07:11:22.316Z,0.90
2023-02-04T07:13:49.890Z,0.63
2023-02-04T07:16:17.658Z,0.80
2023-02-04T07:18:46.441Z,0.60
2023-02-04T07:21:13.993Z,0.70
2023-02-04T07:23:41.742Z,0.87
2023-02-04T07:26:09.150Z,0.97
2023-02-04T07:28:37.408Z,0.63
2023-02-04T07:31:05.067Z,0.70
2023-02-04T07:33:32.742Z,0.83
2023-02-04T07:36:01.585Z,1.00
2023-02-04T07:38:29.110Z,0.80
2023-02-04T07:40:56.632Z,0.50
2023-02-04T07:43:24.106Z,0.93
2023-02-04T07:45:51.968Z,0.80
2023-02-04T07:48:19.373Z,0.80
2023-02-04T07:50:46.763Z,1.10
2023-02-04T07:53:15.437Z,1.10
2023-02-04T07:55:43.568Z,1.20
2023-02-04T07:58:11.474Z,1.10
2023-02-04T08:00:39.221Z,1.03
2023-02-04T08:03:06.730Z,1.10
2023-02-04T08:05:34.264Z,0.90
2023-02-04T08:08:02.000Z,0.80
2023-02-04T08:10:31.066Z,0.83
2023-02-04T08:12:58.662Z,1.07
2023-02-04T08:15:26.027Z,1.10
2023-02-04T08:17:53.635Z,1.17
2023-02-04T08:20:21.017Z,1.07
2023-02-04T08:22:48.359Z,1.00
2023-02-04T08:25:15.892Z,1.50
2023-02-04T08:27:44.614Z,0.90
2023-02-04T08:30:13.230Z,1.13
2023-02-04T08:32:40.575Z,1.03
2023-02-04T08:35:08.467Z,1.00
2023-02-04T08:37:35.838Z,1.10
2023-02-04T08:40:03.233Z,1.10
2023-02-04T08:42:30.677Z,1.37
2023-02-04T08:44:59.466Z,1.10
2023-02-04T08:47:26.817Z,1.20
2023-02-04T08:49:54.191Z,1.33
2023-02-04T08:52:21.569Z,1.20
2023-02-04T08:54:48.994Z,1.20
2023-02-04T08:57:16.516Z,1.07
2023-02-04T08:59:45.478Z,1.00
2023-02-04T09:02:14.411Z,1.00
2023-02-04T09:04:41.808Z,1.30
2023-02-04T09:07:09.381Z,1.20
2023-02-04T09:09:36.783Z,1.00
2023-02-04T09:12:04.270Z,1.00
2023-02-04T09:14:31.723Z,1.03
2023-02-04T09:16:59.332Z,1.30
2023-02-04T09:19:28.390Z,1.10
2023-02-04T09:21:55.943Z,1.33
2023-02-04T09:24:24.172Z,1.17
2023-02-04T09:26:52.074Z,1.60
2023-02-04T09:29:19.497Z,1.20
2023-02-04T09:31:46.905Z,1.40
2023-02-04T09:34:14.265Z,1.50
2023-02-04T09:36:42.963Z,1.40
2023-02-04T09:39:11.584Z,1.30
2023-02-04T09:41:40.235Z,1.47
2023-02-04T09:44:10.968Z,1.30
2023-02-04T09:46:39.076Z,1.17
2023-02-04T09:49:06.617Z,1.47
2023-02-04T09:51:35.067Z,1.40
2023-02-04T09:54:07.863Z,1.50
2023-02-04T09:56:36.450Z,1.50
2023-02-04T09:59:04.868Z,1.30
2023-02-04T10:01:32.320Z,1.70
2023-02-04T10:04:02.327Z,1.23
2023-02-04T10:06:29.781Z,1.50
2023-02-04T10:08:57.761Z,1.20
2023-02-04T10:11:27.387Z,1.20
2023-02-04T10:13:55.677Z,1.10
2023-02-04T10:16:29.692Z,1.30
2023-02-04T10:18:58.384Z,1.20
2023-02-04T10:21:28.840Z,1.47
2023-02-04T10:23:57.028Z,1.10
2023-02-04T10:26:27.157Z,1.10
2023-02-04T10:28:59.687Z,1.30
2023-02-04T10:31:31.254Z,1.03
2023-02-04T10:34:10.424Z,0.93
2023-02-04T10:36:37.959Z,1.03
2023-02-04T10:39:06.218Z,1.33
2023-02-04T10:41:38.644Z,0.90
2023-02-04T10:44:08.710Z,1.17
2023-02-04T10:46:36.329Z,0.90
2023-02-04T10:49:05.076Z,1.27
2023-02-04T10:51:32.675Z,1.17
2023-02-04T10:54:17.491Z,0.87
2023-02-04T10:56:46.234Z,1.07
2023-02-04T10:59:20.174Z,1.23
2023-02-04T11:01:47.666Z,1.20
2023-02-04T11:04:15.104Z,1.13
2023-02-04T11:06:42.559Z,1.50
2023-02-04T11:09:12.975Z,1.23
2023-02-04T11:11:40.473Z,1.00
2023-02-04T11:14:23.682Z,1.20
2023-02-04T11:16:51.814Z,1.23
2023-02-04T11:19:31.721Z,0.80
2023-02-04T11:22:05.802Z,1.10
2023-02-04T11:24:34.625Z,1.20
2023-02-04T11:27:09.905Z,1.00
2023-02-04T11:29:39.064Z,1.10
2023-02-04T11:32:07.614Z,0.90
2023-02-04T11:34:45.904Z,1.10
2023-02-04T11:37:17.719Z,1.00
2023-02-04T11:39:46.437Z,1.20
2023-02-04T11:42:21.556Z,1.30
2023-02-04T11:44:54.450Z,0.90
2023-02-04T11:47:23.487Z,1.10
2023-02-04T11:49:54.615Z,1.30
2023-02-04T11:52:22.389Z,1.10
2023-02-04T11:54:56.329Z,0.70
2023-02-04T11:57:23.733Z,0.93
2023-02-04T11:59:51.181Z,0.83
2023-02-04T12:02:21.270Z,0.70
2023-02-04T12:04:52.821Z,1.00
2023-02-04T12:07:23.193Z,0.70
2023-02-04T12:09:50.983Z,0.80
2023-02-04T12:12:24.339Z,0.80
2023-02-04T12:14:57.985Z,0.83
2023-02-04T12:17:26.743Z,0.67
2023-02-04T12:19:54.107Z,0.73
2023-02-04T12:22:21.475Z,0.70
2023-02-04T12:24:48.839Z,0.87
2023-02-04T12:27:16.402Z,0.63
2023-02-04T12:29:43.794Z,0.70
2023-02-04T12:32:11.224Z,0.70
2023-02-04T12:34:40.319Z,0.50
2023-02-04T12:37:08.421Z,0.60
2023-02-04T12:39:35.925Z,0.57
2023-02-04T12:42:04.421Z,0.70
2023-02-04T12:44:32.091Z,0.57
2023-02-04T12:46:59.774Z,0.67
2023-02-04T12:49:27.239Z,0.60
2023-02-04T12:51:59.101Z,0.90
2023-02-04T12:54:26.618Z,0.60
2023-02-04T12:56:57.986Z,0.80
2023-02-04T12:59:25.511Z,0.70
2023-02-04T13:01:53.180Z,0.70
2023-02-04T13:04:20.612Z,0.97
2023-02-04T13:06:47.999Z,0.70
2023-02-04T13:09:16.742Z,0.70
2023-02-04T13:11:44.205Z,0.63
2023-02-04T13:14:12.245Z,0.60
2023-02-04T13:16:39.734Z,0.70
2023-02-04T13:19:07.135Z,0.60
2023-02-04T13:21:34.520Z,0.57
2023-02-04T13:24:01.903Z,0.20
2023-02-04T13:26:30.759Z,0.30
2023-02-04T13:28:58.272Z,0.30
2023-02-04T13:31:26.003Z,0.13
2023-02-04T13:33:53.792Z,0.50
2023-02-04T13:36:21.177Z,0.20
2023-02-04T13:38:48.738Z,0.23
2023-02-04T13:41:16.220Z,0.30
2023-02-04T13:43:44.907Z,0.20
2023-02-04T13:46:12.470Z,0.30
2023-02-04T13:48:39.902Z,0.43
2023-02-04T13:51:07.420Z,0.40
2023-02-04T13:53:34.788Z,0.30
2023-02-04T13:56:02.442Z,0.40
2023-02-04T13:58:29.820Z,0.40
2023-02-04T14:00:58.529Z,0.33
2023-02-04T14:03:26.293Z,0.70
2023-02-04T14:05:53.865Z,0.40
2023-02-04T14:08:21.589Z,0.37
2023-02-04T14:10:48.961Z,0.20
2023-02-04T14:13:16.471Z,0.30
2023-02-04T14:15:43.829Z,0.50
2023-02-04T14:18:12.576Z,0.30
2023-02-04T14:20:40.222Z,0.30
2023-02-04T14:23:07.674Z,0.30
2023-02-04T14:25:35.068Z,0.20
2023-02-04T14:28:02.554Z,0.17
2023-02-04T14:30:30.624Z,0.57
2023-02-04T14:32:58.338Z,0.30
2023-02-04T14:35:27.283Z,0.27
2023-02-04T14:37:55.150Z,0.30
2023-02-04T14:40:22.704Z,0.40
2023-02-04T14:42:50.407Z,0.43
2023-02-04T14:45:17.789Z,0.30
2023-02-04T14:47:45.179Z,0.40
2023-02-04T14:50:14.811Z,0.50
2023-02-04T14:52:43.617Z,0.60
2023-02-04T14:55:12.756Z,0.80
2023-02-04T14:57:40.301Z,0.90
2023-02-04T15:00:08.314Z,0.60
2023-02-04T15:02:35.890Z,0.40
2023-02-04T15:05:03.284Z,0.70
2023-02-04T15:07:30.651Z,0.40
2023-02-04T15:09:59.746Z,0.60
2023-02-04T15:12:27.111Z,0.50
2023-02-04T15:14:54.489Z,0.40
2023-02-04T15:17:22.017Z,0.43
2023-02-04T15:19:49.392Z,0.50
2023-02-04T15:22:16.829Z,0.30
2023-02-04T15:24:44.208Z,0.30
2023-02-04T15:27:13.041Z,0.40
2023-02-04T15:29:40.695Z,0.30
2023-02-04T15:32:09.710Z,0.63
2023-02-04T15:34:37.260Z,0.40
2023-02-04T15:37:04.852Z,0.40
2023-02-04T15:39:32.852Z,0.27
2023-02-04T15:42:00.263Z,0.40
2023-02-04T15:44:29.084Z,0.40
2023-02-04T15:46:56.465Z,0.30
2023-02-04T15:49:23.931Z,0.30
2023-02-04T15:51:51.295Z,0.20
2023-02-04T15:54:18.729Z,0.33
2023-02-04T15:56:47.031Z,0.33
2023-02-04T15:59:15.857Z,0.30
2023-02-04T16:01:44.656Z,0.10
2023-02-04T16:04:12.251Z,0.40
2023-02-04T16:06:43.047Z,0.50
2023-02-04T16:09:12.457Z,0.40
2023-02-04T16:11:40.851Z,0.40
2023-02-04T16:14:08.322Z,0.40
2023-02-04T16:16:36.035Z,0.57
2023-02-04T16:19:04.752Z,0.40
2023-02-04T16:21:32.304Z,0.40
2023-02-04T16:23:59.952Z,0.40
2023-02-04T16:26:29.570Z,0.50
2023-02-04T16:28:58.010Z,0.50
2023-02-04T16:31:25.515Z,0.40
2023-02-04T16:33:53.635Z,0.40
2023-02-04T16:36:22.464Z,0.40
2023-02-04T16:38:49.860Z,0.50
2023-02-04T16:41:17.263Z,0.30
2023-02-04T16:43:44.707Z,0.60
2023-02-04T16:46:15.094Z,0.50
2023-02-04T16:48:42.516Z,0.40
2023-02-04T16:51:11.620Z,0.50
2023-02-04T16:53:40.657Z,0.50
2023-02-04T16:56:08.507Z,0.50
2023-02-04T16:58:35.940Z,0.40
2023-02-04T17:01:03.469Z,0.50
2023-02-04T17:03:30.967Z,0.80
2023-02-04T17:05:58.356Z,0.60
2023-02-04T17:08:25.856Z,0.60
2023-02-04T17:11:12.269Z,0.70
2023-02-04T17:13:39.681Z,0.50
2023-02-04T17:16:07.214Z,0.50
2023-02-04T17:18:34.978Z,0.77
2023-02-04T17:21:02.531Z,0.67
2023-02-04T17:23:29.944Z,0.50
2023-02-04T17:25:58.711Z,0.80
2023-02-04T17:28:26.261Z,0.60
2023-02-04T17:30:53.881Z,0.60
2023-02-04T17:33:21.402Z,0.70
2023-02-04T17:35:49.028Z,0.63
2023-02-04T17:38:16.466Z,0.53
2023-02-04T17:40:44.156Z,0.53
2023-02-04T17:43:13.428Z,0.60
2023-02-04T17:45:40.840Z,0.60
2023-02-04T17:48:08.469Z,0.60
2023-02-04T17:53:09.839Z,0.70
2023-02-04T17:55:39.386Z,0.60
2023-02-04T17:58:13.789Z,0.50
2023-02-04T18:00:42.570Z,0.60
2023-02-04T18:03:12.436Z,0.30
2023-02-04T18:05:42.666Z,0.60
2023-02-04T18:08:12.173Z,0.50
2023-02-04T18:10:41.608Z,0.60
2023-02-04T18:13:12.708Z,0.67
2023-02-04T18:15:41.506Z,0.90
2023-02-04T18:18:15.828Z,0.60
2023-02-04T18:20:43.329Z,0.60
2023-02-04T18:23:14.641Z,0.90
2023-02-04T18:25:42.302Z,0.67
2023-02-04T18:28:13.687Z,0.70
2023-02-04T18:30:42.854Z,0.80
2023-02-04T18:33:19.003Z,0.93
2023-02-04T18:35:48.123Z,0.60
2023-02-04T18:38:21.919Z,0.67
2023-02-04T18:40:50.263Z,0.40
2023-02-04T18:43:25.310Z,0.80
2023-02-04T18:45:54.778Z,0.50
2023-02-04T18:48:52.457Z,0.40
2023-02-04T18:51:23.408Z,0.53
2023-02-04T18:53:51.093Z,0.70
2023-02-04T18:56:18.565Z,0.70
2023-02-04T18:58:47.889Z,0.63
2023-02-04T19:01:23.101Z,0.40
2023-02-04T19:03:52.742Z,0.83
2023-02-04T19:06:26.318Z,0.70
2023-02-04T19:08:54.189Z,0.60
2023-02-04T19:11:24.273Z,0.90
2023-02-04T19:13:53.289Z,0.70
2023-02-04T19:16:24.160Z,0.90
2023-02-04T19:18:52.191Z,0.70
2023-02-04T19:21:25.834Z,0.50
2023-02-04T19:23:55.638Z,0.90
2023-02-04T19:26:25.801Z,0.73
2023-02-04T19:28:53.399Z,0.70
2023-02-04T19:31:21.329Z,0.77
2023-02-04T19:33:52.015Z,1.00
2023-02-04T19:36:24.287Z,0.80
2023-02-04T19:38:56.253Z,0.60
2023-02-04T19:41:28.020Z,0.60
2023-02-04T19:43:56.787Z,0.50
2023-02-04T19:46:25.022Z,0.70
2023-02-04T19:48:53.784Z,0.73
2023-02-04T19:51:29.597Z,0.70
2023-02-04T19:53:59.169Z,0.80
2023-02-04T19:56:29.357Z,0.53
2023-02-04T19:58:57.894Z,0.80
2023-02-04T20:01:25.365Z,0.80
2023-02-04T20:03:54.094Z,0.60
2023-02-04T20:06:27.555Z,0.50
2023-02-04T20:08:56.095Z,0.40
2023-02-04T20:11:38.152Z,0.80
2023-02-04T20:14:20.468Z,0.80
2023-02-04T20:16:50.518Z,0.70
2023-02-04T20:19:20.624Z,0.60
2023-02-04T20:21:56.693Z,0.67
2023-02-04T20:24:24.195Z,0.80
2023-02-04T20:26:52.630Z,0.50
2023-02-04T20:29:22.054Z,0.90
2023-02-04T20:31:49.995Z,0.80
2023-02-04T20:34:20.561Z,1.00
2023-02-04T20:36:49.809Z,0.70
2023-02-04T20:39:37.066Z,0.80
2023-02-04T20:42:19.847Z,0.80
2023-02-04T20:44:48.150Z,0.57
2023-02-04T20:47:18.384Z,0.90
2023-02-04T20:49:47.964Z,0.70
2023-02-04T20:52:31.382Z,0.77
2023-02-04T20:55:01.468Z,0.97
2023-02-04T20:57:29.078Z,0.63
2023-02-04T20:59:56.574Z,0.87
2023-02-04T21:02:24.035Z,0.90
2023-02-04T21:04:53.958Z,0.80
2023-02-04T21:07:22.559Z,1.37
2023-02-04T21:09:51.598Z,0.90
2023-02-04T21:12:21.527Z,0.97
2023-02-04T21:14:50.240Z,1.10
2023-02-04T21:17:17.729Z,0.97
2023-02-04T21:19:46.359Z,1.00
2023-02-04T21:22:14.301Z,0.90
2023-02-04T21:24:44.520Z,1.00
2023-02-04T21:27:12.738Z,0.67
2023-02-04T21:29:41.810Z,0.90
2023-02-04T21:32:09.386Z,0.73
2023-02-04T21:34:36.821Z,0.77
2023-02-04T21:37:04.235Z,1.10
2023-02-04T21:39:32.765Z,0.90
2023-02-04T21:42:11.011Z,0.50
2023-02-04T21:44:41.005Z,1.00
2023-02-04T21:47:08.524Z,1.07
2023-02-04T21:49:39.479Z,0.80
2023-02-04T21:52:07.648Z,1.20
2023-02-04T21:54:35.021Z,0.80
2023-02-04T21:57:04.321Z,0.97
2023-02-04T21:59:31.824Z,1.00
2023-02-04T22:02:00.707Z,0.97
2023-02-04T22:04:28.366Z,0.60
2023-02-04T22:06:56.252Z,0.83
2023-02-04T22:09:23.697Z,0.80
2023-02-04T22:11:51.114Z,0.83
2023-02-04T22:14:19.179Z,0.77
2023-02-04T22:16:47.000Z,0.60
2023-02-04T22:19:15.814Z,0.60
2023-02-04T22:21:43.696Z,0.53
2023-02-04T22:24:11.057Z,0.63
2023-02-04T22:26:38.438Z,0.50
2023-02-04T22:29:05.797Z,0.53
2023-02-04T22:31:33.188Z,0.40
2023-02-04T22:34:01.208Z,0.50
2023-02-04T22:36:29.902Z,0.60
2023-02-04T22:38:57.267Z,0.47
2023-02-04T22:41:24.978Z,0.40
2023-02-04T22:43:52.375Z,0.70
2023-02-04T22:46:19.989Z,0.60
2023-02-04T22:48:47.398Z,0.60
2023-02-04T22:51:14.753Z,0.30
2023-02-04T22:53:43.471Z,0.60
2023-02-04T22:56:10.840Z,0.50
2023-02-04T22:58:38.201Z,0.53
2023-02-04T23:01:06.881Z,0.60
2023-02-04T23:03:34.343Z,0.50
2023-02-04T23:06:01.792Z,0.60
2023-02-04T23:08:29.210Z,0.40
2023-02-04T23:10:57.915Z,0.70
2023-02-04T23:13:25.330Z,0.63
2023-02-04T23:15:52.717Z,0.47
2023-02-04T23:18:20.055Z,0.60
2023-02-04T23:20:49.165Z,0.77
2023-02-04T23:23:18.979Z,0.30
2023-02-04T23:25:46.795Z,0.70
2023-02-04T23:28:16.018Z,0.50
2023-02-04T23:30:43.509Z,0.20
2023-02-04T23:33:11.071Z,0.40
2023-02-04T23:35:38.432Z,0.60
2023-02-04T23:38:05.803Z,0.63
2023-02-04T23:40:33.327Z,0.50
2023-02-04T23:43:00.743Z,0.50
2023-02-04T23:45:29.510Z,0.60
2023-02-04T23:47:56.928Z,0.50
2023-02-04T23:50:24.337Z,0.40
2023-02-04T23:52:51.714Z,0.43
2023-02-04T23:55:19.175Z,0.50
2023-02-04T23:57:49.483Z,0.60
